Buoy 21539

sailwx.info

Track history (hours):
 
Tides and Currents Weather Stations Pressure Air Temp Water Temp Dewpoint Dewpoint Depression Visibility Wind Speed Wind Dir Waves Ship Positions

Drifting buoy 21539

Last reported at 2016-Jun-25 07:10 UTC. Time now 2016-Jun-25 08:53 UTC.
Position N 48°34' W 139°10'.

Barometer 1022.9 mb
Water temperature 11.3 ° C

Date/timePositionNaut miles runAvg speedWind from/ knotsBaromVisibWave heightAir tempDewpointWater temp
2016-Jun-25 07:10N 48°34' W 139°10'0 0.0 1022.9 11.3
2016-Jun-25 06:10N 48°34' W 139°10'1 0.5 1023.0 11.3
2016-Jun-25 05:10N 48°34' W 139°11'1 0.8 1022.6 11.3
2016-Jun-25 04:10N 48°34' W 139°12'0 0.3 1022.5 11.3
2016-Jun-25 03:10N 48°35' W 139°12'0 0.0 1022.6 11.3
2016-Jun-25 02:10N 48°35' W 139°12'1 0.8 1022.7 11.3
2016-Jun-25 01:10N 48°34' W 139°13'1 1.4 1022.7 11.3
2016-Jun-25 00:10N 48°34' W 139°15'0 0.0 1022.9 11.3
2016-Jun-24 23:10N 48°34' W 139°15'0 0.0 1023.0 11.2
2016-Jun-24 22:10N 48°34' W 139°15'1 0.6 1023.0 11.2
2016-Jun-24 21:10N 48°34' W 139°14'1 0.6 1023.3 11.2
2016-Jun-24 19:10N 48°33' W 139°15'1 1.0 1023.4 11.2
2016-Jun-24 18:10N 48°33' W 139°17'1 1.3 1023.5 11.2
2016-Jun-24 17:10N 48°35' W 139°17'1 0.3 1023.4 11.2
2016-Jun-24 15:10N 48°34' W 139°16'1 0.6 1023.2 11.2
2016-Jun-24 14:10N 48°34' W 139°17'1 1.0 1023.0 11.2
2016-Jun-24 13:10N 48°35' W 139°18'1 0.5 1022.9 11.2
2016-Jun-24 12:10N 48°35' W 139°18'2 1.5 1023.1 11.2
2016-Jun-24 11:10N 48°34' W 139°19'0 0.0 1023.3 11.2
2016-Jun-24 10:10N 48°34' W 139°19'0 0.0 1023.8 11.2
2016-Jun-24 07:10N 48°34' W 139°19'0 0.4 1025.3 11.2
2016-Jun-24 06:10N 48°34' W 139°19'1 0.6 1025.9 11.2
2016-Jun-24 05:10N 48°33' W 139°19'1 0.6 1026.2 11.2
2016-Jun-24 04:10N 48°33' W 139°19'1 0.6 1026.4 11.2
2016-Jun-24 03:10N 48°33' W 139°20'1 1.0 1026.7 11.2
2016-Jun-24 02:10N 48°34' W 139°19'1 1.4 1026.8 11.2
2016-Jun-24 01:10N 48°33' W 139°21'1 1.1 1026.9 11.2
2016-Jun-24 00:10N 48°34' W 139°22'0 0.1 1027.0 11.2
2016-Jun-23 23:10N 48°34' W 139°22'0 0.0 1027.1 11.2
2016-Jun-23 22:10N 48°34' W 139°22'0 0.2 1027.2 11.2
2016-Jun-23 20:10N 48°34' W 139°22'0 0.1 1027.3 11.2
2016-Jun-23 18:10N 48°34' W 139°21'0 0.5 1026.9 11.1
2016-Jun-23 17:10N 48°34' W 139°22'0 0.1 1026.5 11.1
2016-Jun-23 16:10N 48°34' W 139°22'1 0.5 1026.0 11.1
2016-Jun-23 15:10N 48°34' W 139°21'0 0.3 1025.6 11.1
2016-Jun-23 14:10N 48°34' W 139°21'1 1.4 1025.1 11.1
2016-Jun-23 13:10N 48°35' W 139°23'2 1.8 1024.8 11.1
2016-Jun-23 12:10N 48°34' W 139°20'1 0.6 1024.6 11.1
2016-Jun-23 11:10N 48°35' W 139°21'0 0.0 1024.5 11.1
2016-Jun-23 09:10N 48°35' W 139°21'0 0.1 1024.5 11.2
2016-Jun-23 07:10N 48°35' W 139°21'1 1.4 1024.0 11.2
2016-Jun-23 06:10N 48°34' W 139°22'2 1.7 1023.7 11.2
2016-Jun-23 05:10N 48°35' W 139°20'0 0.4 1023.2 11.2
2016-Jun-23 04:10N 48°35' W 139°21'1 1.1 1023.2 11.2
2016-Jun-23 03:10N 48°34' W 139°20'1 1.5 1023.2 11.2
2016-Jun-23 02:10N 48°35' W 139°22'1 1.3 1023.2 11.2
2016-Jun-23 01:10N 48°35' W 139°20'0 0.0 1023.3 11.2
2016-Jun-23 00:10N 48°35' W 139°20'1 0.9 1023.3 11.2
2016-Jun-22 23:10N 48°36' W 139°19'0 0.4 1023.2 11.2
2016-Jun-22 22:10N 48°36' W 139°19'0 0.3 1023.2 11.2
2016-Jun-22 21:10N 48°36' W 139°19'0 0.0 1023.2 11.2
2016-Jun-22 20:10N 48°36' W 139°19'1 1.3 1023.2 11.1
2016-Jun-22 19:10N 48°37' W 139°17'2 2.3 1023.1 11.1
2016-Jun-22 18:10N 48°38' W 139°21'0 0.0 1022.9 11.1
2016-Jun-22 17:10N 48°38' W 139°21'0 0.4 1023.1 11.1
2016-Jun-22 16:10N 48°37' W 139°21'0 0.4 1022.7 11.1
2016-Jun-22 15:10N 48°37' W 139°20'1 0.6 1022.3 11.1
2016-Jun-22 14:10N 48°37' W 139°19'1 1.0 1022.1 11.1
2016-Jun-22 13:10N 48°38' W 139°19'1 0.6 1022.0 11.1
2016-Jun-22 12:10N 48°38' W 139°20'1 0.6 1022.1 11.1
2016-Jun-22 11:10N 48°38' W 139°21'1 1.4 1022.3 11.1
2016-Jun-22 10:10N 48°38' W 139°19'1 0.6 1022.5 11.2
2016-Jun-22 09:10N 48°38' W 139°19'0 0.2 1022.6 11.2
2016-Jun-22 07:10N 48°39' W 139°19'1 0.7 1023.2 11.2
2016-Jun-22 06:10N 48°38' W 139°19'0 0.4 1023.2 11.2
2016-Jun-22 05:10N 48°38' W 139°19'1 0.5 1023.1 11.2
2016-Jun-22 04:10N 48°38' W 139°19'1 0.5 1023.2 11.2
2016-Jun-22 03:10N 48°38' W 139°19'1 0.6 1023.3 11.2
2016-Jun-22 02:10N 48°38' W 139°18'0 0.5 1023.7 11.2
2016-Jun-22 01:10N 48°38' W 139°19'1 0.8 1023.8 11.2
2016-Jun-22 00:10N 48°38' W 139°18'2 0.5 1024.0 11.2
2016-Jun-21 21:10N 48°40' W 139°19'1 0.4 1024.6 11.2
2016-Jun-21 19:10N 48°40' W 139°18'1 0.6 1024.7 11.0
2016-Jun-21 18:10N 48°40' W 139°18'0 0.1 1024.7 10.9
2016-Jun-21 17:10N 48°40' W 139°18'1 0.9 1024.7 10.9
2016-Jun-21 16:10N 48°40' W 139°20'0 0.2 1024.7 10.9
2016-Jun-21 15:10N 48°39' W 139°19'0 0.3 1024.7 10.9
2016-Jun-21 14:10N 48°40' W 139°19'1 0.6 1024.4 10.9
2016-Jun-21 13:10N 48°40' W 139°18'1 0.9 1024.1 10.9
2016-Jun-21 12:10N 48°39' W 139°19'1 0.5 1024.1 10.9
2016-Jun-21 11:10N 48°40' W 139°19'1 1.4 1023.9 10.9
2016-Jun-21 10:10N 48°40' W 139°17'0 0.0 1023.9 10.9
2016-Jun-21 08:10N 48°40' W 139°17'1 0.8 1024.0 10.9
2016-Jun-21 07:10N 48°40' W 139°18'1 0.8 1024.1 10.9
2016-Jun-21 06:10N 48°41' W 139°17'1 0.7 1024.2 10.9
2016-Jun-21 05:10N 48°41' W 139°18'1 1.3 1024.0 10.9
2016-Jun-21 04:10N 48°40' W 139°19'0 0.0 1024.7 11.0
2016-Jun-21 03:10N 48°40' W 139°19'0 0.2 1025.1 11.0
2016-Jun-21 02:10N 48°40' W 139°20'1 1.1 1025.6 11.1
2016-Jun-21 01:10N 48°40' W 139°21'1 0.5 1026.2 11.1
2016-Jun-20 23:10N 48°39' W 139°22'2 1.6 1027.5 11.2
2016-Jun-20 22:10N 48°38' W 139°24'2 1.6 1028.2 11.2
2016-Jun-20 21:10N 48°39' W 139°22'2 0.9 1028.6 11.2
2016-Jun-20 19:10N 48°38' W 139°24'0 0.5 1029.6 11.2
2016-Jun-20 18:10N 48°37' W 139°24'1 0.6 1030.3 11.2
2016-Jun-20 17:10N 48°38' W 139°25'1 0.7 1030.6 11.3
2016-Jun-20 16:10N 48°37' W 139°25'1 0.6 1030.9 11.3
2016-Jun-20 15:10N 48°37' W 139°26'0 0.3 1031.2 11.4
2016-Jun-20 14:10N 48°36' W 139°26'1 0.7 1031.5 11.5
2016-Jun-20 13:10N 48°36' W 139°27'1 1.3 1031.8 11.6
2016-Jun-20 12:10N 48°35' W 139°26'0 0.0 1032.3 11.6
2016-Jun-20 11:10N 48°35' W 139°26'0 0.0 1032.8 11.6
2016-Jun-20 10:10N 48°35' W 139°26'0 0.0 1033.2 11.6
2016-Jun-20 08:10N 48°35' W 139°26'1 0.4 1034.0 11.6
2016-Jun-20 06:10N 48°35' W 139°26'0 0.1 1034.3 11.7
2016-Jun-20 05:10N 48°35' W 139°26'1 0.9 1034.1 11.8
2016-Jun-20 04:10N 48°35' W 139°28'0 0.0 1034.3 11.9
2016-Jun-20 03:10N 48°35' W 139°28'2 2.0 1034.6 12.0
2016-Jun-20 02:10N 48°33' W 139°27'1 0.5 1034.5 11.9
2016-Jun-20 00:10N 48°34' W 139°28'0 0.4 1035.2 12.0
2016-Jun-19 23:10N 48°33' W 139°28'0 0.0 1034.9 11.9
2016-Jun-19 22:10N 48°33' W 139°28'1 0.5 1035.1 11.8
2016-Jun-19 21:10N 48°33' W 139°28'0 0.0 1034.9 11.6
2016-Jun-19 20:10N 48°33' W 139°28'0 0.5 1034.8 11.4
2016-Jun-19 19:10N 48°32' W 139°28'1 0.3 1034.4 11.2
2016-Jun-19 17:10N 48°32' W 139°27'0 0.3 1033.9 11.0
2016-Jun-19 16:10N 48°32' W 139°27'1 0.4 1033.2 11.0
2016-Jun-19 14:10N 48°31' W 139°26'0 0.4 1032.7 11.0
2016-Jun-19 13:10N 48°31' W 139°27'0 0.0 1032.2 10.9
2016-Jun-19 12:10N 48°31' W 139°27'0 0.0 1031.9 10.9
2016-Jun-19 11:10N 48°31' W 139°27'1 0.9 1031.8 10.9
2016-Jun-19 10:10N 48°30' W 139°27'0 0.1 1031.4 10.9
2016-Jun-19 07:10N 48°30' W 139°26'0 0.4 1030.3 11.0
2016-Jun-19 06:10N 48°30' W 139°26'0 0.4 1029.8 11.1
2016-Jun-19 05:10N 48°30' W 139°25'1 0.9 1028.8 11.1
2016-Jun-19 04:10N 48°30' W 139°27'1 0.8 1028.6 11.2
2016-Jun-19 03:10N 48°29' W 139°26'0 0.4 1028.2 11.2
2016-Jun-19 02:10N 48°29' W 139°26'1 0.5 1027.8 11.2
2016-Jun-19 01:10N 48°29' W 139°26'1 1.1 1027.5 11.1
2016-Jun-19 00:10N 48°28' W 139°27'0 0.0 1027.5 11.0
2016-Jun-18 23:10N 48°28' W 139°27'0 0.0 1027.2 10.9
2016-Jun-18 22:10N 48°28' W 139°27'1 0.5 1026.8 10.9
2016-Jun-18 20:10N 48°27' W 139°26'1 0.6 1025.8 10.9
2016-Jun-18 18:10N 48°26' W 139°25'0 0.2 1025.1 10.9
2016-Jun-18 17:10N 48°26' W 139°25'0 0.4 1024.8 10.8
2016-Jun-18 16:10N 48°26' W 139°24'0 0.4 1024.3 10.8
2016-Jun-18 15:10N 48°26' W 139°24'0 0.2 1023.8 10.8
2016-Jun-18 14:10N 48°26' W 139°24'1 0.6 1023.3 10.8
2016-Jun-18 13:10N 48°27' W 139°23'1 0.8 1022.8 10.8
2016-Jun-18 12:10N 48°26' W 139°25'0 0.0 1022.8 10.8
2016-Jun-18 11:10N 48°26' W 139°25'1 0.5 1023.0 10.9
2016-Jun-18 10:10N 48°26' W 139°25'0 0.0 1022.7 10.8
2016-Jun-18 07:10N 48°26' W 139°25'1 0.8 1022.2 10.9
2016-Jun-18 06:10N 48°25' W 139°25'1 0.7 1022.3 10.9
2016-Jun-18 05:10N 48°24' W 139°25'0 0.2 1022.0 10.9
2016-Jun-18 04:10N 48°24' W 139°24'0 0.3 1021.8 11.0
2016-Jun-18 03:10N 48°24' W 139°25'0 0.1 1021.6 11.0
2016-Jun-18 02:10N 48°24' W 139°25'0 0.4 1021.9 11.0
2016-Jun-18 01:10N 48°24' W 139°25'1 1.1 1022.0 11.0
2016-Jun-18 00:10N 48°25' W 139°27'1 1.0 1022.1 10.9
2016-Jun-17 23:10N 48°24' W 139°26'0 0.0 1022.3 10.9
2016-Jun-17 22:10N 48°24' W 139°26'1 0.6 1022.5 10.8
2016-Jun-17 20:10N 48°24' W 139°27'0 0.2 1022.5 10.8
2016-Jun-17 19:10N 48°23' W 139°27'0 0.2 1022.6 10.8
2016-Jun-17 17:10N 48°23' W 139°27'0 0.0 1022.8 10.7
2016-Jun-17 16:10N 48°23' W 139°27'1 0.8 1023.0 10.7
2016-Jun-17 15:10N 48°24' W 139°28'0 0.4 1023.0 10.7
2016-Jun-17 14:10N 48°24' W 139°28'0 0.4 1022.9 10.7
2016-Jun-17 13:10N 48°23' W 139°28'0 0.2 1022.6 10.8
2016-Jun-17 12:10N 48°23' W 139°28'1 1.2 1022.7 10.8
2016-Jun-17 11:10N 48°23' W 139°30'1 1.2 1023.0 10.8
2016-Jun-17 10:10N 48°23' W 139°28'2 0.6 1023.2 10.8
2016-Jun-17 07:10N 48°24' W 139°30'0 0.0 1023.2 10.8
2016-Jun-17 06:10N 48°24' W 139°30'1 1.0 1023.4 10.8
2016-Jun-17 05:10N 48°25' W 139°32'0 0.4 1023.0 10.8
2016-Jun-17 04:10N 48°25' W 139°31'2 2.1 1023.1 10.8
2016-Jun-17 03:10N 48°23' W 139°33'1 1.3 1023.1 10.8
2016-Jun-17 02:10N 48°24' W 139°33'1 1.5 1023.1 10.8
2016-Jun-17 01:10N 48°24' W 139°30'0 0.0 1023.1 10.8
2016-Jun-17 00:10N 48°24' W 139°30'1 0.8 1023.2 10.8
2016-Jun-16 23:10N 48°25' W 139°32'0 0.1 1023.2 10.8
2016-Jun-16 22:10N 48°25' W 139°31'2 0.5 1023.0 10.8
2016-Jun-16 17:10N 48°27' W 139°32'1 0.8 1022.0 10.8
2016-Jun-16 16:10N 48°27' W 139°33'1 0.6 1022.0 10.8
2016-Jun-16 14:10N 48°28' W 139°34'0 0.0 1021.6 10.8
2016-Jun-16 13:10N 48°28' W 139°34'1 0.3 1021.5 10.8
2016-Jun-16 11:10N 48°29' W 139°35'0 0.0 1021.8 10.9
2016-Jun-16 10:10N 48°29' W 139°35'0 0.0 1022.1 10.9
2016-Jun-16 08:10N 48°29' W 139°35'0 0.2 1021.8 10.9
2016-Jun-16 06:10N 48°29' W 139°35'0 0.4 1021.6 10.9
2016-Jun-16 05:10N 48°29' W 139°34'1 0.8 1021.2 10.9
2016-Jun-16 04:10N 48°30' W 139°35'0 0.4 1021.1 10.9
2016-Jun-16 03:10N 48°30' W 139°34'1 1.0 1020.9 10.9
2016-Jun-16 02:10N 48°31' W 139°35'0 0.5 1020.9 10.9
2016-Jun-16 01:10N 48°30' W 139°35'1 1.5 1020.8 10.9
2016-Jun-16 00:10N 48°31' W 139°33'0 0.0 1020.7 10.8
2016-Jun-15 23:10N 48°31' W 139°33'2 1.5 1020.3 10.8
2016-Jun-15 22:10N 48°31' W 139°36'1 0.9 1020.0 10.8
2016-Jun-15 21:10N 48°31' W 139°34'0 0.0 1019.5 10.7
2016-Jun-15 20:10N 48°31' W 139°34'0 0.0 1019.2 10.6
2016-Jun-15 19:10N 48°31' W 139°34'1 0.6 1018.7 10.6
2016-Jun-15 17:10N 48°32' W 139°35'0 0.0 1018.0 10.5
2016-Jun-15 16:10N 48°32' W 139°35'0 0.4 1017.4 10.5
2016-Jun-15 15:10N 48°33' W 139°35'0 0.3 1016.9 10.5
2016-Jun-15 14:10N 48°33' W 139°35'2 1.7 1016.7 10.5
2016-Jun-15 13:10N 48°34' W 139°37'1 0.4 1016.3 10.4
2016-Jun-15 11:10N 48°34' W 139°36'0 0.0 1015.9 10.4
2016-Jun-15 10:10N 48°34' W 139°36'0 0.0 1016.0 10.4
2016-Jun-15 07:10N 48°34' W 139°36'   1015.7 10.4
Track history (hours):
 
Tides and Currents Weather Stations Pressure Air Temp Water Temp Dewpoint Dewpoint Depression Visibility Wind Speed Wind Dir Waves Ship Positions

Drifting buoy 21539

Last reported at 2016-Jun-25 07:10 UTC. Time now 2016-Jun-25 08:53 UTC.
Position N 48°34' W 139°10'.

Barometer 1022.9 mb
Water temperature 11.3 ° C

Date/timePositionNaut miles runAvg speedWind from/ knotsBaromVisibWave heightAir tempDewpointWater temp
2016-Jun-25 07:10N 48°34' W 139°10'0 0.0 1022.9 11.3
2016-Jun-25 06:10N 48°34' W 139°10'1 0.5 1023.0 11.3
2016-Jun-25 05:10N 48°34' W 139°11'1 0.8 1022.6 11.3
2016-Jun-25 04:10N 48°34' W 139°12'0 0.3 1022.5 11.3
2016-Jun-25 03:10N 48°35' W 139°12'0 0.0 1022.6 11.3
2016-Jun-25 02:10N 48°35' W 139°12'1 0.8 1022.7 11.3
2016-Jun-25 01:10N 48°34' W 139°13'1 1.4 1022.7 11.3
2016-Jun-25 00:10N 48°34' W 139°15'0 0.0 1022.9 11.3
2016-Jun-24 23:10N 48°34' W 139°15'0 0.0 1023.0 11.2
2016-Jun-24 22:10N 48°34' W 139°15'1 0.6 1023.0 11.2
2016-Jun-24 21:10N 48°34' W 139°14'1 0.6 1023.3 11.2
2016-Jun-24 19:10N 48°33' W 139°15'1 1.0 1023.4 11.2
2016-Jun-24 18:10N 48°33' W 139°17'1 1.3 1023.5 11.2
2016-Jun-24 17:10N 48°35' W 139°17'1 0.3 1023.4 11.2
2016-Jun-24 15:10N 48°34' W 139°16'1 0.6 1023.2 11.2
2016-Jun-24 14:10N 48°34' W 139°17'1 1.0 1023.0 11.2
2016-Jun-24 13:10N 48°35' W 139°18'1 0.5 1022.9 11.2
2016-Jun-24 12:10N 48°35' W 139°18'2 1.5 1023.1 11.2
2016-Jun-24 11:10N 48°34' W 139°19'0 0.0 1023.3 11.2
2016-Jun-24 10:10N 48°34' W 139°19'0 0.0 1023.8 11.2
2016-Jun-24 07:10N 48°34' W 139°19'0 0.4 1025.3 11.2
2016-Jun-24 06:10N 48°34' W 139°19'1 0.6 1025.9 11.2
2016-Jun-24 05:10N 48°33' W 139°19'1 0.6 1026.2 11.2
2016-Jun-24 04:10N 48°33' W 139°19'1 0.6 1026.4 11.2
2016-Jun-24 03:10N 48°33' W 139°20'1 1.0 1026.7 11.2
2016-Jun-24 02:10N 48°34' W 139°19'1 1.4 1026.8 11.2
2016-Jun-24 01:10N 48°33' W 139°21'1 1.1 1026.9 11.2
2016-Jun-24 00:10N 48°34' W 139°22'0 0.1 1027.0 11.2
2016-Jun-23 23:10N 48°34' W 139°22'0 0.0 1027.1 11.2
2016-Jun-23 22:10N 48°34' W 139°22'0 0.2 1027.2 11.2
2016-Jun-23 20:10N 48°34' W 139°22'0 0.1 1027.3 11.2
2016-Jun-23 18:10N 48°34' W 139°21'0 0.5 1026.9 11.1
2016-Jun-23 17:10N 48°34' W 139°22'0 0.1 1026.5 11.1
2016-Jun-23 16:10N 48°34' W 139°22'1 0.5 1026.0 11.1
2016-Jun-23 15:10N 48°34' W 139°21'0 0.3 1025.6 11.1
2016-Jun-23 14:10N 48°34' W 139°21'1 1.4 1025.1 11.1
2016-Jun-23 13:10N 48°35' W 139°23'2 1.8 1024.8 11.1
2016-Jun-23 12:10N 48°34' W 139°20'1 0.6 1024.6 11.1
2016-Jun-23 11:10N 48°35' W 139°21'0 0.0 1024.5 11.1
2016-Jun-23 09:10N 48°35' W 139°21'0 0.1 1024.5 11.2
2016-Jun-23 07:10N 48°35' W 139°21'1 1.4 1024.0 11.2
2016-Jun-23 06:10N 48°34' W 139°22'2 1.7 1023.7 11.2
2016-Jun-23 05:10N 48°35' W 139°20'0 0.4 1023.2 11.2
2016-Jun-23 04:10N 48°35' W 139°21'1 1.1 1023.2 11.2
2016-Jun-23 03:10N 48°34' W 139°20'1 1.5 1023.2 11.2
2016-Jun-23 02:10N 48°35' W 139°22'1 1.3 1023.2 11.2
2016-Jun-23 01:10N 48°35' W 139°20'0 0.0 1023.3 11.2
2016-Jun-23 00:10N 48°35' W 139°20'1 0.9 1023.3 11.2
2016-Jun-22 23:10N 48°36' W 139°19'0 0.4 1023.2 11.2
2016-Jun-22 22:10N 48°36' W 139°19'0 0.3 1023.2 11.2
2016-Jun-22 21:10N 48°36' W 139°19'0 0.0 1023.2 11.2
2016-Jun-22 20:10N 48°36' W 139°19'1 1.3 1023.2 11.1
2016-Jun-22 19:10N 48°37' W 139°17'2 2.3 1023.1 11.1
2016-Jun-22 18:10N 48°38' W 139°21'0 0.0 1022.9 11.1
2016-Jun-22 17:10N 48°38' W 139°21'0 0.4 1023.1 11.1
2016-Jun-22 16:10N 48°37' W 139°21'0 0.4 1022.7 11.1
2016-Jun-22 15:10N 48°37' W 139°20'1 0.6 1022.3 11.1
2016-Jun-22 14:10N 48°37' W 139°19'1 1.0 1022.1 11.1
2016-Jun-22 13:10N 48°38' W 139°19'1 0.6 1022.0 11.1
2016-Jun-22 12:10N 48°38' W 139°20'1 0.6 1022.1 11.1
2016-Jun-22 11:10N 48°38' W 139°21'1 1.4 1022.3 11.1
2016-Jun-22 10:10N 48°38' W 139°19'1 0.6 1022.5 11.2
2016-Jun-22 09:10N 48°38' W 139°19'0 0.2 1022.6 11.2
2016-Jun-22 07:10N 48°39' W 139°19'1 0.7 1023.2 11.2
2016-Jun-22 06:10N 48°38' W 139°19'0 0.4 1023.2 11.2
2016-Jun-22 05:10N 48°38' W 139°19'1 0.5 1023.1 11.2
2016-Jun-22 04:10N 48°38' W 139°19'1 0.5 1023.2 11.2
2016-Jun-22 03:10N 48°38' W 139°19'1 0.6 1023.3 11.2
2016-Jun-22 02:10N 48°38' W 139°18'0 0.5 1023.7 11.2
2016-Jun-22 01:10N 48°38' W 139°19'1 0.8 1023.8 11.2
2016-Jun-22 00:10N 48°38' W 139°18'2 0.5 1024.0 11.2
2016-Jun-21 21:10N 48°40' W 139°19'1 0.4 1024.6 11.2
2016-Jun-21 19:10N 48°40' W 139°18'1 0.6 1024.7 11.0
2016-Jun-21 18:10N 48°40' W 139°18'0 0.1 1024.7 10.9
2016-Jun-21 17:10N 48°40' W 139°18'1 0.9 1024.7 10.9
2016-Jun-21 16:10N 48°40' W 139°20'0 0.2 1024.7 10.9
2016-Jun-21 15:10N 48°39' W 139°19'0 0.3 1024.7 10.9
2016-Jun-21 14:10N 48°40' W 139°19'1 0.6 1024.4 10.9
2016-Jun-21 13:10N 48°40' W 139°18'1 0.9 1024.1 10.9
2016-Jun-21 12:10N 48°39' W 139°19'1 0.5 1024.1 10.9
2016-Jun-21 11:10N 48°40' W 139°19'1 1.4 1023.9 10.9
2016-Jun-21 10:10N 48°40' W 139°17'0 0.0 1023.9 10.9
2016-Jun-21 08:10N 48°40' W 139°17'1 0.8 1024.0 10.9
2016-Jun-21 07:10N 48°40' W 139°18'1 0.8 1024.1 10.9
2016-Jun-21 06:10N 48°41' W 139°17'1 0.7 1024.2 10.9
2016-Jun-21 05:10N 48°41' W 139°18'1 1.3 1024.0 10.9
2016-Jun-21 04:10N 48°40' W 139°19'0 0.0 1024.7 11.0
2016-Jun-21 03:10N 48°40' W 139°19'0 0.2 1025.1 11.0
2016-Jun-21 02:10N 48°40' W 139°20'1 1.1 1025.6 11.1
2016-Jun-21 01:10N 48°40' W 139°21'1 0.5 1026.2 11.1
2016-Jun-20 23:10N 48°39' W 139°22'2 1.6 1027.5 11.2
2016-Jun-20 22:10N 48°38' W 139°24'2 1.6 1028.2 11.2
2016-Jun-20 21:10N 48°39' W 139°22'2 0.9 1028.6 11.2
2016-Jun-20 19:10N 48°38' W 139°24'0 0.5 1029.6 11.2
2016-Jun-20 18:10N 48°37' W 139°24'1 0.6 1030.3 11.2
2016-Jun-20 17:10N 48°38' W 139°25'1 0.7 1030.6 11.3
2016-Jun-20 16:10N 48°37' W 139°25'1 0.6 1030.9 11.3
2016-Jun-20 15:10N 48°37' W 139°26'0 0.3 1031.2 11.4
2016-Jun-20 14:10N 48°36' W 139°26'1 0.7 1031.5 11.5
2016-Jun-20 13:10N 48°36' W 139°27'1 1.3 1031.8 11.6
2016-Jun-20 12:10N 48°35' W 139°26'0 0.0 1032.3 11.6
2016-Jun-20 11:10N 48°35' W 139°26'0 0.0 1032.8 11.6
2016-Jun-20 10:10N 48°35' W 139°26'0 0.0 1033.2 11.6
2016-Jun-20 08:10N 48°35' W 139°26'1 0.4 1034.0 11.6
2016-Jun-20 06:10N 48°35' W 139°26'0 0.1 1034.3 11.7
2016-Jun-20 05:10N 48°35' W 139°26'1 0.9 1034.1 11.8
2016-Jun-20 04:10N 48°35' W 139°28'0 0.0 1034.3 11.9
2016-Jun-20 03:10N 48°35' W 139°28'2 2.0 1034.6 12.0
2016-Jun-20 02:10N 48°33' W 139°27'1 0.5 1034.5 11.9
2016-Jun-20 00:10N 48°34' W 139°28'0 0.4 1035.2 12.0
2016-Jun-19 23:10N 48°33' W 139°28'0 0.0 1034.9 11.9
2016-Jun-19 22:10N 48°33' W 139°28'1 0.5 1035.1 11.8
2016-Jun-19 21:10N 48°33' W 139°28'0 0.0 1034.9 11.6
2016-Jun-19 20:10N 48°33' W 139°28'0 0.5 1034.8 11.4
2016-Jun-19 19:10N 48°32' W 139°28'1 0.3 1034.4 11.2
2016-Jun-19 17:10N 48°32' W 139°27'0 0.3 1033.9 11.0
2016-Jun-19 16:10N 48°32' W 139°27'1 0.4 1033.2 11.0
2016-Jun-19 14:10N 48°31' W 139°26'0 0.4 1032.7 11.0
2016-Jun-19 13:10N 48°31' W 139°27'0 0.0 1032.2 10.9
2016-Jun-19 12:10N 48°31' W 139°27'0 0.0 1031.9 10.9
2016-Jun-19 11:10N 48°31' W 139°27'1 0.9 1031.8 10.9
2016-Jun-19 10:10N 48°30' W 139°27'0 0.1 1031.4 10.9
2016-Jun-19 07:10N 48°30' W 139°26'0 0.4 1030.3 11.0
2016-Jun-19 06:10N 48°30' W 139°26'0 0.4 1029.8 11.1
2016-Jun-19 05:10N 48°30' W 139°25'1 0.9 1028.8 11.1
2016-Jun-19 04:10N 48°30' W 139°27'1 0.8 1028.6 11.2
2016-Jun-19 03:10N 48°29' W 139°26'0 0.4 1028.2 11.2
2016-Jun-19 02:10N 48°29' W 139°26'1 0.5 1027.8 11.2
2016-Jun-19 01:10N 48°29' W 139°26'1 1.1 1027.5 11.1
2016-Jun-19 00:10N 48°28' W 139°27'0 0.0 1027.5 11.0
2016-Jun-18 23:10N 48°28' W 139°27'0 0.0 1027.2 10.9
2016-Jun-18 22:10N 48°28' W 139°27'1 0.5 1026.8 10.9
2016-Jun-18 20:10N 48°27' W 139°26'1 0.6 1025.8 10.9
2016-Jun-18 18:10N 48°26' W 139°25'0 0.2 1025.1 10.9
2016-Jun-18 17:10N 48°26' W 139°25'0 0.4 1024.8 10.8
2016-Jun-18 16:10N 48°26' W 139°24'0 0.4 1024.3 10.8
2016-Jun-18 15:10N 48°26' W 139°24'0 0.2 1023.8 10.8
2016-Jun-18 14:10N 48°26' W 139°24'1 0.6 1023.3 10.8
2016-Jun-18 13:10N 48°27' W 139°23'1 0.8 1022.8 10.8
2016-Jun-18 12:10N 48°26' W 139°25'0 0.0 1022.8 10.8
2016-Jun-18 11:10N 48°26' W 139°25'1 0.5 1023.0 10.9
2016-Jun-18 10:10N 48°26' W 139°25'0 0.0 1022.7 10.8
2016-Jun-18 07:10N 48°26' W 139°25'1 0.8 1022.2 10.9
2016-Jun-18 06:10N 48°25' W 139°25'1 0.7 1022.3 10.9
2016-Jun-18 05:10N 48°24' W 139°25'0 0.2 1022.0 10.9
2016-Jun-18 04:10N 48°24' W 139°24'0 0.3 1021.8 11.0
2016-Jun-18 03:10N 48°24' W 139°25'0 0.1 1021.6 11.0
2016-Jun-18 02:10N 48°24' W 139°25'0 0.4 1021.9 11.0
2016-Jun-18 01:10N 48°24' W 139°25'1 1.1 1022.0 11.0
2016-Jun-18 00:10N 48°25' W 139°27'1 1.0 1022.1 10.9
2016-Jun-17 23:10N 48°24' W 139°26'0 0.0 1022.3 10.9
2016-Jun-17 22:10N 48°24' W 139°26'1 0.6 1022.5 10.8
2016-Jun-17 20:10N 48°24' W 139°27'0 0.2 1022.5 10.8
2016-Jun-17 19:10N 48°23' W 139°27'0 0.2 1022.6 10.8
2016-Jun-17 17:10N 48°23' W 139°27'0 0.0 1022.8 10.7
2016-Jun-17 16:10N 48°23' W 139°27'1 0.8 1023.0 10.7
2016-Jun-17 15:10N 48°24' W 139°28'0 0.4 1023.0 10.7
2016-Jun-17 14:10N 48°24' W 139°28'0 0.4 1022.9 10.7
2016-Jun-17 13:10N 48°23' W 139°28'0 0.2 1022.6 10.8
2016-Jun-17 12:10N 48°23' W 139°28'1 1.2 1022.7 10.8
2016-Jun-17 11:10N 48°23' W 139°30'1 1.2 1023.0 10.8
2016-Jun-17 10:10N 48°23' W 139°28'2 0.6 1023.2 10.8
2016-Jun-17 07:10N 48°24' W 139°30'0 0.0 1023.2 10.8
2016-Jun-17 06:10N 48°24' W 139°30'1 1.0 1023.4 10.8
2016-Jun-17 05:10N 48°25' W 139°32'0 0.4 1023.0 10.8
2016-Jun-17 04:10N 48°25' W 139°31'2 2.1 1023.1 10.8
2016-Jun-17 03:10N 48°23' W 139°33'1 1.3 1023.1 10.8
2016-Jun-17 02:10N 48°24' W 139°33'1 1.5 1023.1 10.8
2016-Jun-17 01:10N 48°24' W 139°30'0 0.0 1023.1 10.8
2016-Jun-17 00:10N 48°24' W 139°30'1 0.8 1023.2 10.8
2016-Jun-16 23:10N 48°25' W 139°32'0 0.1 1023.2 10.8
2016-Jun-16 22:10N 48°25' W 139°31'2 0.5 1023.0 10.8
2016-Jun-16 17:10N 48°27' W 139°32'1 0.8 1022.0 10.8
2016-Jun-16 16:10N 48°27' W 139°33'1 0.6 1022.0 10.8
2016-Jun-16 14:10N 48°28' W 139°34'0 0.0 1021.6 10.8
2016-Jun-16 13:10N 48°28' W 139°34'1 0.3 1021.5 10.8
2016-Jun-16 11:10N 48°29' W 139°35'0 0.0 1021.8 10.9
2016-Jun-16 10:10N 48°29' W 139°35'0 0.0 1022.1 10.9
2016-Jun-16 08:10N 48°29' W 139°35'0 0.2 1021.8 10.9
2016-Jun-16 06:10N 48°29' W 139°35'0 0.4 1021.6 10.9
2016-Jun-16 05:10N 48°29' W 139°34'1 0.8 1021.2 10.9
2016-Jun-16 04:10N 48°30' W 139°35'0 0.4 1021.1 10.9
2016-Jun-16 03:10N 48°30' W 139°34'1 1.0 1020.9 10.9
2016-Jun-16 02:10N 48°31' W 139°35'0 0.5 1020.9 10.9
2016-Jun-16 01:10N 48°30' W 139°35'1 1.5 1020.8 10.9
2016-Jun-16 00:10N 48°31' W 139°33'0 0.0 1020.7 10.8
2016-Jun-15 23:10N 48°31' W 139°33'2 1.5 1020.3 10.8
2016-Jun-15 22:10N 48°31' W 139°36'1 0.9 1020.0 10.8
2016-Jun-15 21:10N 48°31' W 139°34'0 0.0 1019.5 10.7
2016-Jun-15 20:10N 48°31' W 139°34'0 0.0 1019.2 10.6
2016-Jun-15 19:10N 48°31' W 139°34'1 0.6 1018.7 10.6
2016-Jun-15 17:10N 48°32' W 139°35'0 0.0 1018.0 10.5
2016-Jun-15 16:10N 48°32' W 139°35'0 0.4 1017.4 10.5
2016-Jun-15 15:10N 48°33' W 139°35'0 0.3 1016.9 10.5
2016-Jun-15 14:10N 48°33' W 139°35'2 1.7 1016.7 10.5
2016-Jun-15 13:10N 48°34' W 139°37'1 0.4 1016.3 10.4
2016-Jun-15 11:10N 48°34' W 139°36'0 0.0 1015.9 10.4
2016-Jun-15 10:10N 48°34' W 139°36'0 0.0 1016.0 10.4
2016-Jun-15 07:10N 48°34' W 139°36'   1015.7 10.4

Dump ship's entire track history